Santa Cruz da Vitoria, Brazil
Current Conditions -  °F | °C
As of 1:00 PM on Friday 19 Dec 2014 (Local Time) from SBIL Reporting Station
Moderate Rain Moderate Rain  
Wind Chill: 73°   Ceiling: 1000
Heat Index: 73°   Visibility: 1.2mi
Dew Point: 72°   Wind: 5mph
Humidity: 94%   Direction: 80°E
Pressure: NA   Gusts: NA
Location:  14.96°S, 39.81°W
Report Text: SBIL 191600Z 08004KT 2000 RA BR SCT005 BKN010 OVC070 23/22 Q1013
Loading
Personal Weather Stations






























Interactive Weather Map New forecast layout! Learn more

10-Day Weather Forecast

Advertisements
Track Severe Weather on mobile